Time;durP1;ratioP1;P1;durP2;ratioP2;P2;SDS_P1;SDS_P2;PMS_P1;PMS_P2;Temp;Humidity;BMP_temperature;BMP_pressure;BME280_temperature;BME280_humidity;BME280_pressure;Samples;Min_cycle;Max_cycle;Signal;HPM_P1;HPM_P2
2021/12/24 00:01:58;;;;;;;31.13;19.70;;;;;;;4.44;90.97;99191.00;5024956;28;20041;-77
2021/12/24 00:04:24;;;;;;;26.77;18.00;;;;;;;4.45;90.95;99178.78;5023684;28;20083;-79
2021/12/24 00:06:50;;;;;;;26.27;18.45;;;;;;;4.49;90.96;99175.31;5020251;28;20060;-78
2021/12/24 00:09:26;;;;;;;28.75;19.70;;;;;;;4.52;90.87;99177.91;5023912;28;20040;-77
2021/12/24 00:11:56;;;;;;;30.50;19.35;;;;;;;4.57;90.36;99179.63;5020744;28;20117;-77
2021/12/24 00:14:23;;;;;;;32.90;20.58;;;;;;;4.60;90.99;99169.16;5021488;28;20426;-78
2021/12/24 00:16:53;;;;;;;31.20;21.13;;;;;;;4.58;91.33;99162.19;5016250;28;20042;-77
2021/12/24 00:19:34;;;;;;;32.17;21.85;;;;;;;4.52;92.22;99167.47;5021010;28;20042;-77
2021/12/24 00:35:40;;;;;;;34.83;21.58;;;;;;;4.50;93.75;99138.72;5020627;28;20076;-78
2021/12/24 00:38:08;;;;;;;32.78;20.88;;;;;;;4.53;94.23;99137.81;5004428;28;20041;-77
2021/12/24 00:40:37;;;;;;;33.60;21.67;;;;;;;4.52;95.37;99141.34;5015997;28;20611;-78
2021/12/24 00:43:04;;;;;;;35.03;21.85;;;;;;;4.49;95.33;99130.91;5019277;28;20068;-76
2021/12/24 00:45:33;;;;;;;39.13;22.30;;;;;;;4.47;96.11;99128.28;5021061;28;20439;-76
2021/12/24 00:48:00;;;;;;;35.80;22.05;;;;;;;4.50;96.00;99127.41;5020205;28;20392;-75
2021/12/24 00:50:29;;;;;;;41.75;22.48;;;;;;;4.53;96.31;99122.16;5020866;28;20030;-75
2021/12/24 00:53:02;;;;;;;41.53;24.10;;;;;;;4.52;96.95;99126.50;5023045;28;20116;-74
2021/12/24 00:55:29;;;;;;;42.53;24.77;;;;;;;4.54;96.93;99123.91;5022240;28;20180;-74
2021/12/24 00:58:00;;;;;;;42.55;23.98;;;;;;;4.60;96.74;99118.66;5020506;28;20033;-74
2021/12/24 01:00:29;;;;;;;42.10;25.15;;;;;;;4.67;96.91;99115.13;5003563;28;20511;-75
2021/12/24 01:02:57;;;;;;;36.00;21.88;;;;;;;4.64;97.04;99114.25;5016719;28;20473;-75
2021/12/24 01:05:28;;;;;;;36.55;21.10;;;;;;;4.59;96.88;99115.16;5020923;28;20041;-75
2021/12/24 01:07:55;;;;;;;36.63;21.40;;;;;;;4.54;97.14;99106.47;5020496;28;20060;-75
2021/12/24 01:10:25;;;;;;;43.75;25.05;;;;;;;4.58;97.20;99109.94;5016914;28;20049;-75
2021/12/24 01:12:50;;;;;;;39.40;23.05;;;;;;;4.61;97.21;99110.81;5010955;28;20045;-75
2021/12/24 01:15:18;;;;;;;33.17;20.80;;;;;;;4.62;97.07;99116.91;5019320;28;20037;-75
2021/12/24 01:17:53;;;;;;;36.70;22.73;;;;;;;4.65;97.22;99114.28;5000092;28;20018;-75
2021/12/24 01:20:37;;;;;;;37.35;22.27;;;;;;;4.63;97.33;99113.41;5028640;28;20037;-75
2021/12/24 01:23:28;;;;;;;43.70;25.20;;;;;;;4.66;97.61;99116.00;5018889;28;20052;-75
2021/12/24 01:25:59;;;;;;;39.58;24.08;;;;;;;4.66;97.91;99117.75;5001199;28;20034;-76
2021/12/24 01:28:37;;;;;;;47.05;25.70;;;;;;;4.69;97.77;99110.78;5022181;28;20435;-76
2021/12/24 01:39:41;;;;;;;44.92;25.95;;;;;;;4.69;97.82;99118.63;5021893;28;20044;-76
2021/12/24 01:44:54;;;;;;;36.53;21.35;;;;;;;4.73;97.98;99103.78;5022769;28;20044;-75
2021/12/24 01:47:19;;;;;;;30.55;19.52;;;;;;;4.72;97.81;99100.31;5024379;28;20038;-75
2021/12/24 01:49:45;;;;;;;37.38;22.77;;;;;;;4.72;97.69;99096.81;5018858;28;20041;-75
2021/12/24 01:52:10;;;;;;;41.70;23.83;;;;;;;4.71;97.98;99095.94;5024604;28;20126;-75
2021/12/24 01:54:39;;;;;;;40.72;23.58;;;;;;;4.72;98.37;99102.06;5023393;28;20029;-75
2021/12/24 01:57:05;;;;;;;39.45;22.90;;;;;;;4.73;98.67;99088.97;5017803;28;20026;-75
2021/12/24 01:59:30;;;;;;;30.52;19.10;;;;;;;4.74;98.45;99085.50;5025996;28;20519;-75
2021/12/24 02:01:56;;;;;;;41.05;24.10;;;;;;;4.76;98.80;99083.69;5008219;28;20025;-75
2021/12/24 02:04:21;;;;;;;39.20;21.35;;;;;;;4.80;98.43;99080.22;5020818;28;20169;-75
2021/12/24 02:06:48;;;;;;;44.80;24.83;;;;;;;4.79;98.72;99077.59;5037018;28;20084;-75
2021/12/24 02:09:13;;;;;;;48.28;25.35;;;;;;;4.80;98.59;99076.72;5024115;28;20037;-75
2021/12/24 02:11:40;;;;;;;38.15;20.73;;;;;;;4.87;98.79;99070.56;5021679;28;20076;-76
2021/12/24 02:14:14;;;;;;;41.30;22.88;;;;;;;4.88;98.32;99072.31;5024168;28;20056;-76
2021/12/24 02:16:52;;;;;;;39.65;23.52;;;;;;;4.84;98.82;99061.00;5020909;28;20456;-75
2021/12/24 02:30:13;;;;;;;39.42;22.35;;;;;;;4.91;99.52;99054.00;5022414;28;20045;-75
2021/12/24 02:32:40;;;;;;;27.25;16.58;;;;;;;5.05;98.58;99056.50;5024699;28;20034;-76
2021/12/24 02:35:06;;;;;;;26.50;16.88;;;;;;;5.03;99.35;99058.25;5021608;28;20042;-75
2021/12/24 02:37:32;;;;;;;27.25;18.25;;;;;;;5.06;99.72;99050.41;5023704;28;20381;-76
2021/12/24 02:39:57;;;;;;;29.77;17.45;;;;;;;5.11;98.87;99043.41;5021434;28;20042;-76
2021/12/24 02:42:23;;;;;;;25.35;16.55;;;;;;;5.14;99.41;99040.75;5025360;28;20056;-76
2021/12/24 02:44:50;;;;;;;28.08;15.20;;;;;;;5.21;99.01;99029.38;5030163;28;20111;-76
2021/12/24 02:54:59;;;;;;;23.90;15.65;;;;;;;5.28;100.00;99036.25;5022087;28;20052;-75
2021/12/24 02:57:26;;;;;;;24.38;17.90;;;;;;;5.39;99.25;99030.06;5022296;28;20112;-74
2021/12/24 03:00:06;;;;;;;26.20;16.05;;;;;;;5.39;99.67;99030.94;5017297;28;20073;-74
2021/12/24 03:02:34;;;;;;;27.17;18.02;;;;;;;5.35;100.00;99026.63;5022324;28;20701;-74
2021/12/24 03:05:01;;;;;;;27.17;16.42;;;;;;;5.39;100.00;99023.09;5022036;28;20033;-74
2021/12/24 03:07:26;;;;;;;32.40;18.52;;;;;;;5.49;100.00;99023.88;5022770;28;20033;-74
2021/12/24 03:09:54;;;;;;;28.08;16.55;;;;;;;5.51;100.00;99024.72;5021489;28;20395;-74
2021/12/24 03:12:20;;;;;;;30.65;18.00;;;;;;;5.53;100.00;99009.00;5021685;28;20028;-74
2021/12/24 03:14:45;;;;;;;24.70;16.02;;;;;;;5.52;100.00;99017.75;5020717;28;20128;-75
2021/12/24 03:17:16;;;;;;;29.20;17.38;;;;;;;5.56;100.00;99009.84;5021954;28;20100;-75
2021/12/24 03:19:41;;;;;;;27.67;17.42;;;;;;;5.58;100.00;99021.19;5017477;28;20543;-74
2021/12/24 03:24:36;;;;;;;20.48;14.35;;;;;;;5.62;100.00;99014.16;5021595;28;20411;-75
2021/12/24 03:27:04;;;;;;;22.08;14.27;;;;;;;5.65;100.00;99001.88;5021069;28;20148;-75
2021/12/24 03:29:29;;;;;;;24.10;14.90;;;;;;;5.67;100.00;99001.88;5022417;28;20395;-74
2021/12/24 03:31:54;;;;;;;24.25;16.33;;;;;;;5.69;100.00;99003.59;5020784;28;20045;-75
2021/12/24 03:34:22;;;;;;;23.30;15.20;;;;;;;5.70;100.00;99004.47;5022582;28;20152;-75
2021/12/24 03:36:48;;;;;;;20.13;13.40;;;;;;;5.75;100.00;99012.28;5037456;28;20488;-74
2021/12/24 03:39:18;;;;;;;20.42;13.13;;;;;;;5.77;100.00;99013.13;5032864;28;20034;-74
2021/12/24 03:41:44;;;;;;;23.60;15.45;;;;;;;5.78;100.00;99014.84;5023954;28;20046;-74
2021/12/24 03:44:12;;;;;;;19.20;13.55;;;;;;;5.80;100.00;99010.47;5019046;28;20477;-75
2021/12/24 03:46:57;;;;;;;23.35;15.68;;;;;;;5.78;100.00;99010.47;5018715;28;20033;-75
2021/12/24 03:49:35;;;;;;;25.63;15.70;;;;;;;5.82;100.00;99012.19;5027320;28;20038;-74
2021/12/24 03:52:17;;;;;;;22.38;15.32;;;;;;;5.85;100.00;99013.91;5019343;28;20034;-74
2021/12/24 03:54:57;;;;;;;21.70;14.10;;;;;;;5.85;100.00;99027.00;5020769;28;20050;-75
2021/12/24 03:57:31;;;;;;;20.50;14.23;;;;;;;5.88;100.00;99017.34;5019361;28;20029;-74
2021/12/24 04:00:21;;;;;;;21.17;13.30;;;;;;;5.88;100.00;99011.25;5021809;28;20044;-74
2021/12/24 04:03:00;;;;;;;18.95;13.25;;;;;;;5.91;100.00;99017.31;5018734;28;20041;-74
2021/12/24 04:05:46;;;;;;;23.45;15.50;;;;;;;5.96;100.00;99009.44;5021132;28;20052;-74
2021/12/24 04:08:31;;;;;;;21.25;13.70;;;;;;;5.97;100.00;99021.63;5020315;28;20557;-74
2021/12/24 04:11:12;;;;;;;24.70;15.20;;;;;;;5.99;100.00;99019.88;5019866;28;20035;-75
2021/12/24 04:13:40;;;;;;;17.38;12.38;;;;;;;6.04;100.00;99002.34;5017537;28;20080;-74
2021/12/24 04:16:06;;;;;;;20.63;14.15;;;;;;;6.04;100.00;99007.59;5026989;28;20026;-74
2021/12/24 04:18:53;;;;;;;20.00;13.23;;;;;;;6.06;100.00;99013.69;5019645;28;20025;-74
2021/12/24 04:26:47;;;;;;;26.13;16.05;;;;;;;6.09;100.00;99000.53;5038082;28;20041;-74
2021/12/24 04:29:12;;;;;;;18.15;13.20;;;;;;;6.16;100.00;98996.09;5021784;28;20411;-75
2021/12/24 04:31:42;;;;;;;17.90;11.95;;;;;;;6.15;100.00;98984.75;5015031;28;20124;-74
2021/12/24 04:34:44;;;;;;;20.40;14.10;;;;;;;6.12;100.00;98990.03;5019296;28;20041;-74
2021/12/24 04:38:08;;;;;;;22.23;14.27;;;;;;;6.13;100.00;98988.25;5017908;28;20281;-74
2021/12/24 04:51:22;;;;;;;16.88;11.98;;;;;;;6.26;100.00;98988.97;5018820;28;20045;-74
2021/12/24 05:02:38;;;;;;;23.95;14.35;;;;;;;6.29;100.00;98984.56;5018137;28;20037;-74
2021/12/24 05:05:21;;;;;;;16.25;11.68;;;;;;;6.36;100.00;98985.34;5020250;28;20037;-74
2021/12/24 05:10:17;;;;;;;19.67;13.57;;;;;;;6.40;100.00;98962.59;5024796;28;20071;-75
2021/12/24 05:12:43;;;;;;;19.65;14.20;;;;;;;6.39;100.00;98971.34;5018952;28;20065;-75
2021/12/24 05:15:10;;;;;;;15.45;11.68;;;;;;;6.44;100.00;98962.50;5021590;28;20060;-74
2021/12/24 05:23:27;;;;;;;21.77;14.80;;;;;;;6.45;100.00;98966.88;5021685;28;20119;-75
2021/12/24 05:25:53;;;;;;;20.75;14.07;;;;;;;6.46;100.00;98962.50;5020987;28;20080;-75
2021/12/24 05:28:19;;;;;;;22.67;15.48;;;;;;;6.46;100.00;98957.25;5031681;28;20033;-75
2021/12/24 05:30:45;;;;;;;16.73;12.27;;;;;;;6.54;100.00;98956.25;5022652;28;20132;-75
2021/12/24 05:33:14;;;;;;;20.15;13.45;;;;;;;6.55;100.00;98970.25;5020232;28;20060;-75
2021/12/24 05:35:40;;;;;;;19.27;13.75;;;;;;;6.57;100.00;98973.69;5023241;28;20520;-75
2021/12/24 05:38:09;;;;;;;18.45;13.05;;;;;;;6.61;100.00;98966.66;5022328;28;20389;-75
2021/12/24 05:40:34;;;;;;;20.77;13.43;;;;;;;6.59;100.00;98959.66;5020052;28;20037;-75
2021/12/24 05:43:00;;;;;;;17.80;13.60;;;;;;;6.65;100.00;98956.09;5022897;28;20073;-75
2021/12/24 05:45:25;;;;;;;21.85;13.77;;;;;;;6.65;100.00;98963.09;5024632;28;20044;-75
2021/12/24 05:48:09;;;;;;;18.20;12.80;;;;;;;6.69;100.00;98949.06;5025623;28;20091;-74
2021/12/24 05:50:34;;;;;;;20.38;14.10;;;;;;;6.68;100.00;98960.41;5021538;28;20034;-74
2021/12/24 05:53:18;;;;;;;18.48;12.88;;;;;;;6.68;100.00;98952.53;5023765;28;20049;-74
2021/12/24 05:56:01;;;;;;;17.55;13.02;;;;;;;6.72;100.00;98947.25;5021419;28;20041;-75
2021/12/24 05:58:26;;;;;;;17.23;12.25;;;;;;;6.71;100.00;98955.16;5020208;28;20100;-75
2021/12/24 06:00:54;;;;;;;17.73;12.63;;;;;;;6.76;100.00;98956.81;5023584;28;20053;-75
2021/12/24 06:03:25;;;;;;;19.38;13.43;;;;;;;6.75;100.00;98927.97;5025250;28;20088;-75
2021/12/24 06:05:50;;;;;;;17.95;12.32;;;;;;;6.76;100.00;98932.34;5024287;28;20439;-75
2021/12/24 06:08:15;;;;;;;17.92;12.95;;;;;;;6.75;100.00;98928.84;5025140;28;20126;-75
2021/12/24 06:10:42;;;;;;;24.88;14.18;;;;;;;6.78;100.00;98927.91;5025623;28;20120;-75
2021/12/24 06:13:08;;;;;;;16.80;12.50;;;;;;;6.82;100.00;98940.09;5022850;28;20145;-75
2021/12/24 06:15:41;;;;;;;17.90;13.30;;;;;;;6.82;100.00;98929.59;5022765;28;20547;-75
2021/12/24 06:18:13;;;;;;;17.55;12.98;;;;;;;6.89;100.00;98935.59;5023280;28;20034;-75
2021/12/24 06:20:39;;;;;;;18.48;13.05;;;;;;;6.87;100.00;98919.06;5024263;28;20036;-75
2021/12/24 06:23:07;;;;;;;19.02;13.55;;;;;;;6.91;100.00;98923.34;5023191;28;20034;-75
2021/12/24 06:25:32;;;;;;;14.40;11.00;;;;;;;6.94;100.00;98925.91;5023556;28;20096;-75
2021/12/24 06:27:58;;;;;;;15.55;11.95;;;;;;;6.98;100.00;98923.19;5027216;28;20037;-75
2021/12/24 06:30:27;;;;;;;16.35;12.60;;;;;;;6.97;100.00;98924.09;5022857;28;20052;-75
2021/12/24 06:32:52;;;;;;;18.35;11.95;;;;;;;6.99;100.00;98931.94;5024894;28;20052;-75
2021/12/24 06:35:18;;;;;;;17.52;11.88;;;;;;;7.00;100.00;98921.44;5023572;28;20046;-75
2021/12/24 06:37:43;;;;;;;19.65;12.23;;;;;;;7.05;100.00;98928.34;5024374;28;20116;-75
2021/12/24 06:40:09;;;;;;;15.35;11.20;;;;;;;7.07;100.00;98921.31;5021785;28;20141;-75
2021/12/24 06:42:34;;;;;;;17.83;11.02;;;;;;;7.11;100.00;98915.13;5025000;28;20495;-75
2021/12/24 06:45:01;;;;;;;17.27;10.88;;;;;;;7.13;100.00;98918.59;5021124;28;20065;-75
2021/12/24 06:47:26;;;;;;;18.15;12.98;;;;;;;7.17;100.00;98909.75;5023330;28;20492;-75
2021/12/24 06:49:52;;;;;;;17.05;11.98;;;;;;;7.23;100.00;98928.00;5022041;28;20038;-75
2021/12/24 06:52:17;;;;;;;17.90;12.45;;;;;;;7.19;100.00;98921.97;5023857;28;20906;-75
2021/12/24 06:54:42;;;;;;;15.68;11.15;;;;;;;7.28;100.00;98927.94;5022420;28;20033;-75
2021/12/24 06:57:15;;;;;;;15.23;11.20;;;;;;;7.31;100.00;98935.75;5018154;28;20076;-75
2021/12/24 06:59:42;;;;;;;22.08;12.98;;;;;;;7.23;100.00;98922.75;5029965;28;20048;-75
2021/12/24 07:02:08;;;;;;;17.73;12.63;;;;;;;7.33;100.00;98920.84;5021065;28;20446;-75
2021/12/24 07:04:33;;;;;;;16.73;12.25;;;;;;;7.39;100.00;98926.84;5022711;28;20084;-75
2021/12/24 07:06:59;;;;;;;21.65;14.25;;;;;;;7.36;100.00;98926.03;5022929;28;20033;-75
2021/12/24 07:09:24;;;;;;;20.23;12.63;;;;;;;7.45;100.00;98939.00;5021990;28;20030;-75
2021/12/24 07:11:49;;;;;;;19.63;14.82;;;;;;;7.47;99.26;98919.69;5023613;28;20166;-75
2021/12/24 07:14:15;;;;;;;19.02;13.55;;;;;;;7.49;99.94;98926.66;5021095;28;20061;-75
2021/12/24 07:16:40;;;;;;;21.75;14.77;;;;;;;7.41;100.00;98917.19;5024005;28;20411;-75
2021/12/24 07:19:06;;;;;;;18.35;12.43;;;;;;;7.43;100.00;98917.16;5020912;28;20124;-75
2021/12/24 07:21:34;;;;;;;21.98;14.45;;;;;;;7.44;100.00;98919.75;5023965;28;20083;-75
2021/12/24 07:24:00;;;;;;;20.95;15.18;;;;;;;7.51;99.98;98919.63;5020904;28;20488;-75
2021/12/24 07:26:25;;;;;;;21.42;13.98;;;;;;;7.56;99.94;98920.41;5023171;28;20037;-75
2021/12/24 07:28:51;;;;;;;23.77;15.85;;;;;;;7.54;99.69;98914.31;5021454;28;20029;-75
2021/12/24 07:31:16;;;;;;;23.77;14.57;;;;;;;7.52;100.00;98916.97;5022157;28;20404;-76
2021/12/24 07:33:41;;;;;;;20.80;15.02;;;;;;;7.56;99.85;98909.91;5022178;28;20759;-75
2021/12/24 07:36:07;;;;;;;22.10;13.73;;;;;;;7.59;99.93;98917.72;5021681;28;20041;-75
2021/12/24 07:38:32;;;;;;;15.77;11.70;;;;;;;7.63;100.00;98919.41;5022738;28;20045;-75
2021/12/24 07:40:58;;;;;;;18.55;13.13;;;;;;;7.64;100.00;98926.38;5020864;28;20041;-75
2021/12/24 07:43:23;;;;;;;18.70;12.88;;;;;;;7.69;99.66;98925.38;5023503;28;20033;-75
2021/12/24 07:45:50;;;;;;;18.20;12.77;;;;;;;7.71;100.00;98920.09;5020034;28;20038;-75
2021/12/24 07:48:26;;;;;;;18.75;12.95;;;;;;;7.78;99.68;98934.84;5020033;28;20125;-75
2021/12/24 07:53:17;;;;;;;16.80;11.55;;;;;;;7.77;100.00;98933.09;5023350;28;20033;-75
2021/12/24 07:55:43;;;;;;;17.60;12.00;;;;;;;7.77;99.58;98912.09;5019761;28;20556;-75
2021/12/24 07:58:09;;;;;;;13.80;10.43;;;;;;;7.80;100.00;98913.78;5023527;28;20500;-75
2021/12/24 08:00:36;;;;;;;17.27;10.18;;;;;;;7.82;100.00;98914.63;5019987;28;20079;-75
2021/12/24 08:03:03;;;;;;;13.43;10.02;;;;;;;7.82;100.00;98927.75;5023388;28;20034;-75
2021/12/24 08:05:29;;;;;;;12.65;9.63;;;;;;;7.88;99.81;98915.34;5020201;28;20049;-75
2021/12/24 08:07:55;;;;;;;12.77;9.73;;;;;;;7.89;99.46;98922.34;5018126;28;20034;-75
2021/12/24 08:10:24;;;;;;;13.82;9.82;;;;;;;7.89;99.57;98929.38;5023289;28;20048;-75
2021/12/24 08:12:50;;;;;;;12.07;9.40;;;;;;;7.96;99.58;98919.56;5022513;28;20030;-75
2021/12/24 08:15:17;;;;;;;14.20;9.68;;;;;;;7.93;99.74;98917.03;5020778;28;20044;-75
2021/12/24 08:17:44;;;;;;;13.48;9.70;;;;;;;7.98;99.83;98916.03;5021862;28;20485;-75
2021/12/24 08:20:10;;;;;;;12.93;9.05;;;;;;;7.96;99.89;98915.19;5023835;28;20044;-75
2021/12/24 08:22:36;;;;;;;13.25;8.98;;;;;;;7.99;99.16;98911.63;5021489;28;20044;-75
2021/12/24 08:25:05;;;;;;;12.32;8.95;;;;;;;8.00;99.78;98916.88;5021613;28;20037;-75
2021/12/24 08:27:31;;;;;;;10.65;7.78;;;;;;;8.05;99.35;98916.78;5021099;28;20411;-75
2021/12/24 08:29:57;;;;;;;13.52;9.18;;;;;;;8.02;99.80;98915.06;5020596;28;20040;-75
2021/12/24 08:32:22;;;;;;;14.45;8.70;;;;;;;8.06;99.29;98918.50;5020566;28;20038;-75
2021/12/24 08:34:48;;;;;;;12.00;8.68;;;;;;;8.13;99.57;98912.22;5022449;28;20041;-75
2021/12/24 08:37:14;;;;;;;11.10;7.85;;;;;;;8.11;99.76;98908.75;5019618;28;20038;-75
2021/12/24 08:39:39;;;;;;;13.25;8.80;;;;;;;8.15;98.99;98909.53;5023210;28;20040;-76
2021/12/24 08:42:04;;;;;;;10.43;6.97;;;;;;;8.15;99.74;98907.78;5018393;28;20113;-75
2021/12/24 08:44:34;;;;;;;12.32;7.75;;;;;;;8.16;99.28;98914.75;5026373;28;20063;-75
2021/12/24 08:47:01;;;;;;;9.00;6.85;;;;;;;8.18;99.28;98907.72;5023680;28;20510;-75
2021/12/24 08:49:27;;;;;;;10.43;7.60;;;;;;;8.21;99.39;98891.00;5026633;28;20120;-75
2021/12/24 08:51:53;;;;;;;9.73;6.45;;;;;;;8.22;99.21;98893.59;5024156;28;20037;-75
2021/12/24 08:54:21;;;;;;;9.02;6.30;;;;;;;8.22;99.46;98890.97;5024665;28;20038;-77
2021/12/24 08:56:46;;;;;;;9.20;6.40;;;;;;;8.27;98.75;98888.22;5024274;28;20029;-75
2021/12/24 08:59:11;;;;;;;7.47;5.72;;;;;;;8.33;98.21;98895.97;5025362;28;20488;-75
2021/12/24 09:01:37;;;;;;;8.57;6.05;;;;;;;8.37;97.90;98881.00;5025221;28;20069;-75
2021/12/24 09:04:02;;;;;;;8.20;5.53;;;;;;;8.34;97.78;98898.56;5024584;28;20274;-75
2021/12/24 09:06:28;;;;;;;8.50;5.82;;;;;;;8.40;97.31;98887.09;5025512;28;20073;-76
2021/12/24 09:08:53;;;;;;;10.57;6.43;;;;;;;8.38;97.65;98878.31;5019170;28;20045;-75
2021/12/24 09:11:19;;;;;;;8.50;5.13;;;;;;;8.42;97.24;98890.53;5023324;28;20124;-75
2021/12/24 09:13:45;;;;;;;9.13;5.90;;;;;;;8.48;96.67;98895.66;5026613;28;20047;-75
2021/12/24 09:16:11;;;;;;;6.97;5.32;;;;;;;8.48;96.40;98906.16;5022822;28;20046;-76
2021/12/24 09:18:39;;;;;;;6.78;4.75;;;;;;;8.56;95.96;98891.06;5026271;28;20044;-76
2021/12/24 09:21:12;;;;;;;6.80;3.88;;;;;;;8.60;95.06;98899.75;5021966;28;20036;-75
2021/12/24 09:23:37;;;;;;;7.15;3.97;;;;;;;8.71;93.99;98902.97;5023013;28;20488;-76
2021/12/24 09:26:02;;;;;;;6.10;3.80;;;;;;;8.77;93.44;98899.34;5025937;28;20042;-75
2021/12/24 09:28:28;;;;;;;7.90;4.40;;;;;;;8.83;92.77;98898.31;5029555;28;20038;-76
2021/12/24 09:30:53;;;;;;;5.55;4.07;;;;;;;9.00;91.66;98890.88;5023619;28;20038;-76
2021/12/24 09:33:18;;;;;;;5.78;3.40;;;;;;;8.96;91.54;98883.94;5025074;28;20115;-76
2021/12/24 09:35:44;;;;;;;6.90;3.97;;;;;;;8.99;91.95;98879.47;5024027;28;20083;-76
2021/12/24 09:38:10;;;;;;;5.00;3.40;;;;;;;8.83;93.51;98898.31;5024058;28;20026;-76
2021/12/24 09:40:35;;;;;;;4.85;3.30;;;;;;;8.75;94.08;98919.53;5029675;28;20037;-76
2021/12/24 09:43:01;;;;;;;6.68;3.45;;;;;;;8.72;95.44;98875.81;5025330;28;20041;-76
2021/12/24 09:45:26;;;;;;;6.20;4.05;;;;;;;8.72;95.73;98873.16;5022720;28;20045;-76
2021/12/24 09:47:52;;;;;;;5.90;3.80;;;;;;;8.72;94.92;98875.81;5025791;28;20038;-75
2021/12/24 09:50:21;;;;;;;4.78;3.47;;;;;;;8.81;94.45;98874.69;5017557;28;20038;-76
2021/12/24 09:52:49;;;;;;;5.50;3.38;;;;;;;8.81;93.82;98876.47;5022317;28;20046;-76
2021/12/24 09:55:26;;;;;;;5.90;3.40;;;;;;;8.83;94.02;98874.63;5021722;28;20042;-76
2021/12/24 09:57:52;;;;;;;6.18;3.03;;;;;;;8.82;93.99;98873.78;5021848;28;20045;-76
2021/12/24 10:00:22;;;;;;;4.72;2.45;;;;;;;8.95;92.28;98882.22;5024997;28;20044;-76
2021/12/24 10:02:51;;;;;;;4.68;2.63;;;;;;;9.07;91.43;98862.63;5018724;28;20551;-76
2021/12/24 10:05:26;;;;;;;5.13;2.60;;;;;;;9.26;90.62;98860.34;5021770;28;20121;-76
2021/12/24 10:07:57;;;;;;;4.90;2.65;;;;;;;9.38;89.50;98866.16;5023407;28;20033;-76
2021/12/24 10:10:28;;;;;;;4.90;2.60;;;;;;;9.55;88.57;98857.75;5024287;28;20116;-77
2021/12/24 10:12:53;;;;;;;5.35;2.78;;;;;;;9.51;88.68;98850.88;5025959;28;20065;-76
2021/12/24 10:15:19;;;;;;;3.95;2.55;;;;;;;9.55;87.76;98859.53;5024038;28;20115;-76
2021/12/24 10:17:45;;;;;;;4.63;2.17;;;;;;;9.73;86.54;98853.72;5027056;28;20087;-76
2021/12/24 10:20:17;;;;;;;6.20;3.47;;;;;;;9.72;86.76;98840.59;5023667;28;20092;-76
2021/12/24 10:22:49;;;;;;;4.57;2.83;;;;;;;9.74;85.56;98849.31;5023222;28;20056;-76
2021/12/24 10:25:16;;;;;;;4.88;3.20;;;;;;;9.77;85.22;98838.69;5024468;28;20075;-76
2021/12/24 10:27:43;;;;;;;3.58;2.50;;;;;;;9.72;84.68;98840.59;5021235;28;20125;-76
2021/12/24 10:30:14;;;;;;;4.47;2.30;;;;;;;9.68;84.88;98828.44;5024107;28;20120;-76
2021/12/24 10:32:40;;;;;;;4.97;2.30;;;;;;;9.76;84.65;98826.44;5022394;28;20041;-76
2021/12/24 10:35:27;;;;;;;4.40;2.00;;;;;;;9.79;84.53;98836.88;5023903;28;20084;-76
2021/12/24 10:38:10;;;;;;;3.55;2.10;;;;;;;9.82;83.26;98823.59;5022475;28;20025;-76
2021/12/24 10:40:36;;;;;;;4.18;2.10;;;;;;;9.90;82.42;98834.78;5022394;28;20037;-76
2021/12/24 10:43:01;;;;;;;3.55;2.15;;;;;;;9.85;81.35;98841.94;5025621;28;20500;-76
2021/12/24 10:45:27;;;;;;;4.15;2.38;;;;;;;9.93;81.44;98841.72;5023544;28;20073;-76
2021/12/24 10:47:52;;;;;;;4.43;2.13;;;;;;;10.08;81.89;98844.75;5022858;28;20119;-77
2021/12/24 10:55:23;;;;;;;3.90;2.00;;;;;;;10.07;80.51;98839.53;5019031;28;20041;-76
2021/12/24 10:57:51;;;;;;;3.55;1.88;;;;;;;10.08;80.03;98831.56;5022168;28;20535;-76
2021/12/24 11:00:31;;;;;;;3.60;2.42;;;;;;;10.09;79.04;98814.88;5022267;28;20033;-76
2021/12/24 11:03:05;;;;;;;3.95;1.88;;;;;;;10.10;79.67;98832.38;5019970;28;20081;-76
2021/12/24 11:05:42;;;;;;;3.78;2.03;;;;;;;10.13;78.73;98851.66;5022839;28;20047;-76
2021/12/24 11:08:17;;;;;;;3.72;2.38;;;;;;;10.15;78.67;98836.66;5025983;28;20037;-76
2021/12/24 11:10:48;;;;;;;3.10;1.80;;;;;;;10.13;78.66;98812.97;5029369;28;20040;-77
2021/12/24 11:13:19;;;;;;;3.70;1.60;;;;;;;10.22;78.87;98825.03;5021718;28;20065;-77
2021/12/24 11:15:50;;;;;;;4.30;2.22;;;;;;;10.20;78.01;98826.84;5020761;28;20393;-77
2021/12/24 11:18:24;;;;;;;4.00;2.20;;;;;;;10.25;77.45;98814.38;5020683;28;20030;-76
2021/12/24 11:21:01;;;;;;;3.33;2.00;;;;;;;10.24;78.22;98797.69;5021521;28;20049;-77
2021/12/24 11:23:29;;;;;;;4.40;2.13;;;;;;;10.27;77.04;98801.97;5022322;28;20038;-76
2021/12/24 11:25:58;;;;;;;4.75;1.80;;;;;;;10.21;77.27;98818.88;5017734;28;20412;-77
2021/12/24 11:28:25;;;;;;;5.63;2.38;;;;;;;10.29;76.47;98831.84;5022447;28;20485;-77
2021/12/24 11:31:03;;;;;;;2.97;1.80;;;;;;;10.24;77.35;98817.91;5022232;28;20041;-76
2021/12/24 11:33:31;;;;;;;4.65;2.47;;;;;;;10.26;76.75;98826.63;5023791;28;20436;-76
2021/12/24 11:35:58;;;;;;;4.95;2.15;;;;;;;10.24;76.48;98833.72;5019524;28;20037;-76
2021/12/24 11:38:28;;;;;;;5.25;2.00;;;;;;;10.26;76.81;98809.03;5024345;28;20488;-77
2021/12/24 11:40:56;;;;;;;3.90;1.83;;;;;;;10.28;76.08;98825.72;5023599;28;20500;-77
2021/12/24 11:43:26;;;;;;;3.42;1.83;;;;;;;10.40;77.02;98808.63;5019529;28;20100;-76
2021/12/24 11:45:52;;;;;;;3.63;1.75;;;;;;;10.46;75.84;98820.75;5018798;28;20077;-76
2021/12/24 11:48:17;;;;;;;3.53;1.95;;;;;;;10.40;75.63;98813.03;5023250;28;20071;-77
2021/12/24 11:50:43;;;;;;;4.25;2.22;;;;;;;10.44;75.56;98815.53;5021014;28;20153;-77
2021/12/24 11:53:13;;;;;;;4.55;2.20;;;;;;;10.35;75.58;98797.38;5026457;28;20069;-77
2021/12/24 11:55:48;;;;;;;6.28;2.15;;;;;;;10.41;75.43;98805.06;5020834;28;20049;-75
2021/12/24 11:58:21;;;;;;;4.57;2.00;;;;;;;10.39;75.20;98804.25;5019965;28;20061;-75
2021/12/24 12:00:50;;;;;;;4.03;2.10;;;;;;;10.42;74.68;98816.47;5020273;28;20045;-76
2021/12/24 12:03:37;;;;;;;3.83;2.40;;;;;;;10.40;75.23;98828.84;5021901;28;20095;-75
2021/12/24 12:06:29;;;;;;;3.83;2.38;;;;;;;10.56;74.57;98795.81;5025224;28;20450;-75
2021/12/24 12:08:59;;;;;;;3.93;2.00;;;;;;;10.70;74.30;98819.06;5021997;28;20054;-75
2021/12/24 12:11:32;;;;;;;4.88;2.40;;;;;;;10.66;74.11;98828.88;5021193;28;20040;-76
2021/12/24 12:14:01;;;;;;;5.45;2.72;;;;;;;10.73;74.56;98796.06;5022781;28;20479;-75
2021/12/24 12:16:43;;;;;;;4.97;2.90;;;;;;;10.65;74.13;98821.84;5019809;28;20484;-75
2021/12/24 12:27:38;;;;;;;5.13;2.67;;;;;;;10.31;75.19;98814.19;5021436;28;20037;-75
2021/12/24 12:30:42;;;;;;;5.88;2.45;;;;;;;10.29;75.01;98800.19;5020971;28;20038;-74
2021/12/24 12:33:11;;;;;;;6.85;3.30;;;;;;;10.32;75.76;98810.63;5021748;28;20038;-74
2021/12/24 12:35:43;;;;;;;6.40;2.90;;;;;;;10.27;74.88;98807.25;5020689;28;20467;-75
2021/12/24 12:38:31;;;;;;;5.18;2.72;;;;;;;10.29;74.87;98813.38;5017694;28;20408;-75
2021/12/24 12:41:17;;;;;;;5.68;2.90;;;;;;;10.32;74.91;98810.63;5020856;28;20041;-75
2021/12/24 12:43:43;;;;;;;5.57;3.05;;;;;;;10.35;75.13;98792.09;5019564;28;20038;-75
2021/12/24 12:46:19;;;;;;;7.80;2.80;;;;;;;10.41;74.67;98794.53;5022733;28;20049;-75
2021/12/24 12:48:48;;;;;;;5.43;2.63;;;;;;;10.38;74.45;98804.31;5019887;28;20048;-75
2021/12/24 12:51:14;;;;;;;6.53;2.67;;;;;;;10.34;74.97;98802.69;5022226;28;20098;-75
2021/12/24 12:53:41;;;;;;;5.15;2.95;;;;;;;10.37;74.64;98792.88;5019742;28;20496;-74
2021/12/24 12:56:23;;;;;;;5.55;2.90;;;;;;;10.33;74.56;98791.28;5022505;28;20025;-75
2021/12/24 12:59:04;;;;;;;4.45;2.70;;;;;;;10.30;74.10;98784.34;5021445;28;20046;-75
2021/12/24 13:01:30;;;;;;;6.53;2.88;;;;;;;10.33;74.71;98824.72;5019434;28;20050;-75
2021/12/24 13:03:55;;;;;;;4.82;3.00;;;;;;;10.34;74.15;98786.88;5022723;28;20076;-75
2021/12/24 13:06:22;;;;;;;5.82;3.40;;;;;;;10.34;74.20;98793.00;5018212;28;20037;-75
2021/12/24 13:08:47;;;;;;;5.95;2.80;;;;;;;10.35;74.34;98788.59;5022043;28;20021;-76
2021/12/24 13:11:18;;;;;;;7.65;2.95;;;;;;;10.36;74.11;98783.28;5020320;28;20068;-75
2021/12/24 13:13:50;;;;;;;6.80;2.95;;;;;;;10.33;74.26;98788.66;5034192;28;20087;-75